createdAt,value
2023-02-08T00:01:11.426Z,-2.56
2023-02-08T00:03:38.419Z,-2.64
2023-02-08T00:06:07.519Z,-2.66
2023-02-08T00:08:39.320Z,-2.68
2023-02-08T00:11:11.256Z,-2.72
2023-02-08T00:13:41.952Z,-2.79
2023-02-08T00:16:10.343Z,-2.84
2023-02-08T00:18:37.325Z,-2.84
2023-02-08T00:21:16.684Z,-2.87
2023-02-08T00:23:44.500Z,-2.91
2023-02-08T00:26:11.752Z,-2.93
2023-02-08T00:28:39.361Z,-2.99
2023-02-08T00:31:07.010Z,-2.99
2023-02-08T00:33:35.996Z,-3.01
2023-02-08T00:36:05.327Z,-3.02
2023-02-08T00:38:32.974Z,-3.08
2023-02-08T00:41:00.229Z,-3.09
2023-02-08T00:43:28.420Z,-3.14
2023-02-08T00:45:57.041Z,-3.13
2023-02-08T00:48:25.870Z,-3.20
2023-02-08T00:51:08.999Z,-3.19
2023-02-08T00:53:40.957Z,-3.24
2023-02-08T00:56:09.177Z,-3.27
2023-02-08T00:58:37.607Z,-3.29
2023-02-08T01:01:06.394Z,-3.27
2023-02-08T01:03:35.653Z,-3.32
2023-02-08T01:06:06.119Z,-3.37
2023-02-08T01:08:33.427Z,-3.40
2023-02-08T01:11:07.487Z,-3.45
2023-02-08T01:13:34.653Z,-3.47
2023-02-08T01:16:14.836Z,-3.48
2023-02-08T01:18:44.110Z,-3.48
2023-02-08T01:21:14.213Z,-3.47
2023-02-08T01:23:44.013Z,-3.48
2023-02-08T01:26:14.987Z,-3.55
2023-02-08T01:28:42.821Z,-3.50
2023-02-08T01:31:14.056Z,-3.50
2023-02-08T01:33:41.941Z,-3.51
2023-02-08T01:36:10.216Z,-3.55
2023-02-08T01:38:39.101Z,-3.59
2023-02-08T01:41:08.462Z,-3.60
2023-02-08T01:44:08.284Z,-3.65
2023-02-08T01:46:37.832Z,-3.65
2023-02-08T01:49:11.738Z,-3.66
2023-02-08T01:51:46.970Z,-3.68
2023-02-08T01:54:16.886Z,-3.67
2023-02-08T01:56:46.355Z,-3.66
2023-02-08T01:59:26.765Z,-3.67
2023-02-08T02:01:56.630Z,-3.76
2023-02-08T02:04:26.699Z,-3.75
2023-02-08T02:06:58.325Z,-3.80
2023-02-08T02:09:29.099Z,-3.77
2023-02-08T02:11:56.292Z,-3.79
2023-02-08T02:14:25.254Z,-3.83
2023-02-08T02:16:52.396Z,-3.86
2023-02-08T02:19:29.551Z,-3.84
2023-02-08T02:21:56.807Z,-3.87
2023-02-08T02:24:51.705Z,-3.88
2023-02-08T02:27:43.372Z,-3.89
2023-02-08T02:30:16.823Z,-3.94
2023-02-08T02:33:06.051Z,-3.95
2023-02-08T02:36:03.787Z,-3.99
2023-02-08T02:39:05.411Z,-4.01
2023-02-08T02:42:13.661Z,-3.99
2023-02-08T02:44:59.662Z,-3.99
2023-02-08T02:47:32.869Z,-4.02
2023-02-08T02:50:36.994Z,-4.03
2023-02-08T02:53:18.407Z,-4.06
2023-02-08T02:55:56.517Z,-4.11
2023-02-08T02:58:27.109Z,-4.13
2023-02-08T03:00:56.457Z,-4.15
2023-02-08T03:03:27.085Z,-4.15
2023-02-08T03:06:03.755Z,-4.18
2023-02-08T03:08:34.267Z,-4.16
2023-02-08T03:11:22.059Z,-4.16
2023-02-08T03:14:20.212Z,-4.19
2023-02-08T03:17:30.048Z,-4.30
2023-02-08T03:20:06.888Z,-4.48
2023-02-08T03:22:59.671Z,-4.56
2023-02-08T03:25:47.814Z,-4.57
2023-02-08T03:28:24.498Z,-4.58
2023-02-08T03:31:16.527Z,-4.58
2023-02-08T03:33:56.853Z,-4.53
2023-02-08T03:36:26.601Z,-4.54
2023-02-08T03:38:56.423Z,-4.51
2023-02-08T03:41:28.596Z,-4.49
2023-02-08T03:44:01.644Z,-4.49
2023-02-08T03:46:33.528Z,-4.49
2023-02-08T03:49:08.462Z,-4.51
2023-02-08T03:51:39.196Z,-4.51
2023-02-08T03:54:12.381Z,-4.57
2023-02-08T03:56:48.591Z,-4.53
2023-02-08T03:59:23.097Z,-4.53
2023-02-08T04:01:58.031Z,-4.51
2023-02-08T04:04:31.202Z,-4.52
2023-02-08T04:07:00.962Z,-4.55
2023-02-08T04:12:22.557Z,-4.56
2023-02-08T04:14:50.838Z,-4.60
2023-02-08T04:17:19.209Z,-4.64
2023-02-08T04:19:46.152Z,-4.65
2023-02-08T04:22:14.183Z,-4.69
2023-02-08T04:24:42.088Z,-4.66
2023-02-08T04:27:09.448Z,-4.68
2023-02-08T04:29:38.216Z,-4.69
2023-02-08T04:32:05.284Z,-4.75
2023-02-08T04:34:32.322Z,-4.76
2023-02-08T04:37:00.873Z,-4.78
2023-02-08T04:39:27.752Z,-4.82
2023-02-08T04:41:56.228Z,-4.81
2023-02-08T04:44:23.745Z,-4.85
2023-02-08T04:46:50.790Z,-4.86
2023-02-08T04:49:19.711Z,-4.87
2023-02-08T04:51:46.640Z,-4.94
2023-02-08T04:54:15.136Z,-4.95
2023-02-08T04:56:42.080Z,-5.02
2023-02-08T04:59:09.080Z,-5.01
2023-02-08T05:01:36.237Z,-5.07
2023-02-08T05:04:03.240Z,-5.16
2023-02-08T05:06:30.546Z,-5.15
2023-02-08T05:08:57.997Z,-5.14
2023-02-08T05:11:27.016Z,-5.15
2023-02-08T05:13:53.975Z,-5.15
2023-02-08T05:16:21.188Z,-5.16
2023-02-08T05:18:48.105Z,-5.12
2023-02-08T05:21:17.253Z,-5.15
2023-02-08T05:23:46.440Z,-5.12
2023-02-08T05:26:15.608Z,-5.12
2023-02-08T05:28:42.489Z,-5.15
2023-02-08T05:31:22.945Z,-5.19
2023-02-08T05:33:53.293Z,-5.25
2023-02-08T05:36:23.294Z,-5.37
2023-02-08T05:38:50.860Z,-5.23
2023-02-08T05:41:17.805Z,-5.24
2023-02-08T05:43:46.041Z,-5.27
2023-02-08T05:46:13.326Z,-5.27
2023-02-08T05:48:40.473Z,-5.28
2023-02-08T05:51:07.380Z,-5.29
2023-02-08T05:53:34.423Z,-5.35
2023-02-08T05:56:01.314Z,-5.46
2023-02-08T05:58:28.390Z,-5.59
2023-02-08T06:00:55.405Z,-5.61
2023-02-08T06:03:22.844Z,-5.62
2023-02-08T06:05:49.941Z,-5.59
2023-02-08T06:08:17.016Z,-5.60
2023-02-08T06:10:44.010Z,-5.59
2023-02-08T06:13:11.089Z,-5.62
2023-02-08T06:15:37.894Z,-5.61
2023-02-08T06:18:04.934Z,-5.62
2023-02-08T06:20:31.787Z,-5.64
2023-02-08T06:22:58.590Z,-5.62
2023-02-08T06:25:25.448Z,-5.65
2023-02-08T06:27:52.580Z,-5.63
2023-02-08T06:30:19.438Z,-5.68
2023-02-08T06:32:46.330Z,-5.69
2023-02-08T06:35:13.367Z,-5.74
2023-02-08T06:37:40.228Z,-5.81
2023-02-08T06:40:07.679Z,-5.80
2023-02-08T06:42:34.488Z,-5.79
2023-02-08T06:45:01.273Z,-5.78
2023-02-08T06:47:28.807Z,-5.78
2023-02-08T06:49:55.562Z,-5.75
2023-02-08T06:52:22.413Z,-5.72
2023-02-08T06:54:49.478Z,-5.75
2023-02-08T06:57:16.754Z,-5.72
2023-02-08T06:59:43.715Z,-5.77
2023-02-08T07:02:18.917Z,-5.75
2023-02-08T07:04:46.381Z,-5.75
2023-02-08T07:07:15.216Z,-5.69
2023-02-08T07:09:42.319Z,-5.64
2023-02-08T07:12:10.267Z,-5.62
2023-02-08T07:14:41.377Z,-5.59
2023-02-08T07:17:08.652Z,-5.55
2023-02-08T07:19:35.460Z,-5.53
2023-02-08T07:22:08.394Z,-5.49
2023-02-08T07:24:37.151Z,-5.47
2023-02-08T07:27:05.426Z,-5.40
2023-02-08T07:29:33.274Z,-5.34
2023-02-08T07:32:01.305Z,-5.30
2023-02-08T07:34:33.421Z,-5.27
2023-02-08T07:37:00.621Z,-5.22
2023-02-08T07:39:27.544Z,-5.22
2023-02-08T07:41:54.352Z,-5.18
2023-02-08T07:44:22.398Z,-5.14
2023-02-08T07:46:49.216Z,-5.09
2023-02-08T07:49:16.022Z,-5.06
2023-02-08T07:51:42.800Z,-5.01
2023-02-08T07:54:09.647Z,-4.98
2023-02-08T07:56:36.426Z,-4.93
2023-02-08T07:59:03.534Z,-4.83
2023-02-08T08:01:30.379Z,-4.78
2023-02-08T08:03:57.383Z,-4.68
2023-02-08T08:06:24.421Z,-4.61
2023-02-08T08:08:51.333Z,-4.56
2023-02-08T08:11:19.230Z,-4.47
2023-02-08T08:13:46.008Z,-4.40
2023-02-08T08:16:13.666Z,-4.31
2023-02-08T08:18:40.823Z,-4.22
2023-02-08T08:21:08.484Z,-4.14
2023-02-08T08:23:36.344Z,-4.08
2023-02-08T08:26:17.588Z,-3.95
2023-02-08T08:28:46.959Z,-3.87
2023-02-08T08:31:17.541Z,-3.81
2023-02-08T08:33:44.884Z,-3.67
2023-02-08T08:36:11.826Z,-3.59
2023-02-08T08:38:39.493Z,-3.50
2023-02-08T08:41:17.221Z,-3.40
2023-02-08T08:43:44.476Z,-3.31
2023-02-08T08:46:11.433Z,-3.23
2023-02-08T08:48:40.822Z,-3.15
2023-02-08T08:51:08.154Z,-3.05
2023-02-08T08:53:35.241Z,-2.99
